sensor_id;sensor_type;location;lat;lon;timestamp;P1;durP1;ratioP1;P2;durP2;ratioP2
57331;SDS011;43164;50.908;18.092;2022-12-18T00:02:28;52.50;;;16.70;;
57331;SDS011;43164;50.908;18.092;2022-12-18T00:04:56;53.80;;;17.20;;
57331;SDS011;43164;50.908;18.092;2022-12-18T00:07:28;53.10;;;15.70;;
57331;SDS011;43164;50.908;18.092;2022-12-18T00:09:56;54.30;;;16.90;;
57331;SDS011;43164;50.908;18.092;2022-12-18T00:12:24;49.00;;;15.40;;
57331;SDS011;43164;50.908;18.092;2022-12-18T00:14:51;51.60;;;15.20;;
57331;SDS011;43164;50.908;18.092;2022-12-18T00:17:19;56.80;;;17.40;;
57331;SDS011;43164;50.908;18.092;2022-12-18T00:19:48;48.70;;;16.30;;
57331;SDS011;43164;50.908;18.092;2022-12-18T00:22:15;56.80;;;15.40;;
57331;SDS011;43164;50.908;18.092;2022-12-18T00:24:48;47.90;;;15.00;;
57331;SDS011;43164;50.908;18.092;2022-12-18T00:27:16;57.60;;;16.10;;
57331;SDS011;43164;50.908;18.092;2022-12-18T00:29:43;56.00;;;18.50;;
57331;SDS011;43164;50.908;18.092;2022-12-18T00:32:11;54.60;;;16.60;;
57331;SDS011;43164;50.908;18.092;2022-12-18T00:34:39;55.10;;;16.30;;
57331;SDS011;43164;50.908;18.092;2022-12-18T00:37:06;55.10;;;15.70;;
57331;SDS011;43164;50.908;18.092;2022-12-18T00:39:34;47.60;;;15.20;;
57331;SDS011;43164;50.908;18.092;2022-12-18T00:42:02;50.50;;;15.50;;
57331;SDS011;43164;50.908;18.092;2022-12-18T00:44:48;53.20;;;16.30;;
57331;SDS011;43164;50.908;18.092;2022-12-18T00:47:16;49.50;;;15.50;;
57331;SDS011;43164;50.908;18.092;2022-12-18T00:49:44;51.50;;;15.30;;
57331;SDS011;43164;50.908;18.092;2022-12-18T00:52:12;46.10;;;13.90;;
57331;SDS011;43164;50.908;18.092;2022-12-18T00:54:43;49.20;;;14.60;;
57331;SDS011;43164;50.908;18.092;2022-12-18T00:57:10;48.90;;;13.80;;
57331;SDS011;43164;50.908;18.092;2022-12-18T00:59:38;50.90;;;14.40;;
57331;SDS011;43164;50.908;18.092;2022-12-18T01:02:06;46.70;;;15.60;;
57331;SDS011;43164;50.908;18.092;2022-12-18T01:04:34;47.30;;;14.70;;
57331;SDS011;43164;50.908;18.092;2022-12-18T01:07:02;47.00;;;14.70;;
57331;SDS011;43164;50.908;18.092;2022-12-18T01:09:40;48.00;;;14.20;;
57331;SDS011;43164;50.908;18.092;2022-12-18T01:12:08;48.20;;;15.40;;
57331;SDS011;43164;50.908;18.092;2022-12-18T01:14:36;44.40;;;12.70;;
57331;SDS011;43164;50.908;18.092;2022-12-18T01:17:05;51.00;;;16.40;;
57331;SDS011;43164;50.908;18.092;2022-12-18T01:19:37;48.80;;;14.70;;
57331;SDS011;43164;50.908;18.092;2022-12-18T01:22:05;46.20;;;14.20;;
57331;SDS011;43164;50.908;18.092;2022-12-18T01:24:33;47.80;;;14.40;;
57331;SDS011;43164;50.908;18.092;2022-12-18T01:27:00;50.90;;;13.90;;
57331;SDS011;43164;50.908;18.092;2022-12-18T01:29:29;42.00;;;13.70;;
57331;SDS011;43164;50.908;18.092;2022-12-18T01:31:56;50.90;;;15.50;;
57331;SDS011;43164;50.908;18.092;2022-12-18T01:34:23;50.50;;;14.70;;
57331;SDS011;43164;50.908;18.092;2022-12-18T01:36:51;44.80;;;13.70;;
57331;SDS011;43164;50.908;18.092;2022-12-18T01:39:19;40.40;;;11.80;;
57331;SDS011;43164;50.908;18.092;2022-12-18T01:41:46;51.70;;;14.10;;
57331;SDS011;43164;50.908;18.092;2022-12-18T01:47:27;44.00;;;13.40;;
57331;SDS011;43164;50.908;18.092;2022-12-18T01:55:20;49.00;;;15.00;;
57331;SDS011;43164;50.908;18.092;2022-12-18T01:57:52;55.10;;;14.40;;
57331;SDS011;43164;50.908;18.092;2022-12-18T02:00:25;47.70;;;14.10;;
57331;SDS011;43164;50.908;18.092;2022-12-18T02:02:53;47.00;;;14.00;;
57331;SDS011;43164;50.908;18.092;2022-12-18T02:05:44;53.00;;;14.10;;
57331;SDS011;43164;50.908;18.092;2022-12-18T02:08:32;48.50;;;15.50;;
57331;SDS011;43164;50.908;18.092;2022-12-18T02:11:32;47.30;;;13.40;;
57331;SDS011;43164;50.908;18.092;2022-12-18T02:14:35;51.70;;;14.80;;
57331;SDS011;43164;50.908;18.092;2022-12-18T02:17:29;41.00;;;12.30;;
57331;SDS011;43164;50.908;18.092;2022-12-18T02:20:13;43.00;;;13.20;;
57331;SDS011;43164;50.908;18.092;2022-12-18T02:28:09;45.00;;;13.10;;
57331;SDS011;43164;50.908;18.092;2022-12-18T02:30:39;54.80;;;14.40;;
57331;SDS011;43164;50.908;18.092;2022-12-18T02:33:08;46.00;;;12.60;;
57331;SDS011;43164;50.908;18.092;2022-12-18T02:35:39;41.80;;;12.80;;
57331;SDS011;43164;50.908;18.092;2022-12-18T02:38:08;45.40;;;13.50;;
57331;SDS011;43164;50.908;18.092;2022-12-18T02:40:39;41.90;;;12.40;;
57331;SDS011;43164;50.908;18.092;2022-12-18T02:43:12;42.30;;;13.10;;
57331;SDS011;43164;50.908;18.092;2022-12-18T02:45:50;35.70;;;11.60;;
57331;SDS011;43164;50.908;18.092;2022-12-18T02:48:28;43.80;;;12.90;;
57331;SDS011;43164;50.908;18.092;2022-12-18T02:54:02;37.60;;;12.30;;
57331;SDS011;43164;50.908;18.092;2022-12-18T02:56:57;42.80;;;12.80;;
57331;SDS011;43164;50.908;18.092;2022-12-18T02:59:42;46.90;;;13.90;;
57331;SDS011;43164;50.908;18.092;2022-12-18T03:02:29;44.50;;;13.10;;
57331;SDS011;43164;50.908;18.092;2022-12-18T03:05:22;46.30;;;12.60;;
57331;SDS011;43164;50.908;18.092;2022-12-18T03:08:18;50.40;;;13.30;;
57331;SDS011;43164;50.908;18.092;2022-12-18T03:11:01;38.80;;;11.60;;
57331;SDS011;43164;50.908;18.092;2022-12-18T03:13:41;43.40;;;12.70;;
57331;SDS011;43164;50.908;18.092;2022-12-18T03:16:20;50.50;;;15.20;;
57331;SDS011;43164;50.908;18.092;2022-12-18T03:18:54;46.80;;;14.30;;
57331;SDS011;43164;50.908;18.092;2022-12-18T03:21:38;42.80;;;12.80;;
57331;SDS011;43164;50.908;18.092;2022-12-18T03:24:16;44.40;;;13.70;;
57331;SDS011;43164;50.908;18.092;2022-12-18T03:26:46;39.50;;;11.90;;
57331;SDS011;43164;50.908;18.092;2022-12-18T03:29:17;48.00;;;13.00;;
57331;SDS011;43164;50.908;18.092;2022-12-18T03:32:00;46.20;;;14.10;;
57331;SDS011;43164;50.908;18.092;2022-12-18T03:34:33;43.50;;;13.70;;
57331;SDS011;43164;50.908;18.092;2022-12-18T03:37:04;38.70;;;11.80;;
57331;SDS011;43164;50.908;18.092;2022-12-18T03:39:33;34.40;;;10.40;;
57331;SDS011;43164;50.908;18.092;2022-12-18T03:45:24;48.30;;;14.10;;
57331;SDS011;43164;50.908;18.092;2022-12-18T03:47:57;45.30;;;13.40;;
57331;SDS011;43164;50.908;18.092;2022-12-18T03:53:33;47.40;;;12.70;;
57331;SDS011;43164;50.908;18.092;2022-12-18T03:56:24;38.40;;;11.80;;
57331;SDS011;43164;50.908;18.092;2022-12-18T03:58:53;39.30;;;12.30;;
57331;SDS011;43164;50.908;18.092;2022-12-18T04:01:22;46.70;;;14.10;;
57331;SDS011;43164;50.908;18.092;2022-12-18T04:03:58;53.40;;;13.60;;
57331;SDS011;43164;50.908;18.092;2022-12-18T04:06:28;41.00;;;11.70;;
57331;SDS011;43164;50.908;18.092;2022-12-18T04:08:56;38.00;;;11.00;;
57331;SDS011;43164;50.908;18.092;2022-12-18T04:11:25;42.20;;;12.80;;
57331;SDS011;43164;50.908;18.092;2022-12-18T04:13:55;39.60;;;11.20;;
57331;SDS011;43164;50.908;18.092;2022-12-18T04:16:25;43.80;;;12.90;;
57331;SDS011;43164;50.908;18.092;2022-12-18T04:18:53;41.40;;;13.60;;
57331;SDS011;43164;50.908;18.092;2022-12-18T04:21:21;45.20;;;13.80;;
57331;SDS011;43164;50.908;18.092;2022-12-18T04:23:50;47.40;;;13.40;;
57331;SDS011;43164;50.908;18.092;2022-12-18T04:26:18;48.80;;;13.90;;
57331;SDS011;43164;50.908;18.092;2022-12-18T04:28:46;41.90;;;14.50;;
57331;SDS011;43164;50.908;18.092;2022-12-18T04:31:13;42.60;;;12.50;;
57331;SDS011;43164;50.908;18.092;2022-12-18T04:33:42;41.50;;;11.90;;
57331;SDS011;43164;50.908;18.092;2022-12-18T04:36:10;33.50;;;9.80;;
57331;SDS011;43164;50.908;18.092;2022-12-18T04:38:39;43.70;;;12.80;;
57331;SDS011;43164;50.908;18.092;2022-12-18T04:41:07;44.20;;;12.40;;
57331;SDS011;43164;50.908;18.092;2022-12-18T04:43:35;44.50;;;12.90;;
57331;SDS011;43164;50.908;18.092;2022-12-18T04:46:06;40.40;;;12.80;;
57331;SDS011;43164;50.908;18.092;2022-12-18T04:48:35;41.20;;;11.40;;
57331;SDS011;43164;50.908;18.092;2022-12-18T04:51:04;39.60;;;13.60;;
57331;SDS011;43164;50.908;18.092;2022-12-18T04:53:32;40.80;;;12.60;;
57331;SDS011;43164;50.908;18.092;2022-12-18T04:56:04;39.60;;;12.70;;
57331;SDS011;43164;50.908;18.092;2022-12-18T04:58:33;43.50;;;13.60;;
57331;SDS011;43164;50.908;18.092;2022-12-18T05:01:02;40.20;;;12.90;;
57331;SDS011;43164;50.908;18.092;2022-12-18T05:03:31;40.70;;;13.20;;
57331;SDS011;43164;50.908;18.092;2022-12-18T05:06:07;48.50;;;15.20;;
57331;SDS011;43164;50.908;18.092;2022-12-18T05:08:37;52.10;;;13.70;;
57331;SDS011;43164;50.908;18.092;2022-12-18T05:11:08;42.70;;;13.50;;
57331;SDS011;43164;50.908;18.092;2022-12-18T05:13:39;46.40;;;13.70;;
57331;SDS011;43164;50.908;18.092;2022-12-18T05:16:07;49.10;;;15.30;;
57331;SDS011;43164;50.908;18.092;2022-12-18T05:18:36;49.60;;;17.20;;
57331;SDS011;43164;50.908;18.092;2022-12-18T05:21:04;45.30;;;15.60;;
57331;SDS011;43164;50.908;18.092;2022-12-18T05:23:32;48.20;;;15.00;;
57331;SDS011;43164;50.908;18.092;2022-12-18T05:26:08;47.80;;;14.80;;
57331;SDS011;43164;50.908;18.092;2022-12-18T05:28:37;48.80;;;13.00;;
57331;SDS011;43164;50.908;18.092;2022-12-18T05:31:05;41.80;;;12.40;;
57331;SDS011;43164;50.908;18.092;2022-12-18T05:33:33;49.20;;;12.80;;
57331;SDS011;43164;50.908;18.092;2022-12-18T05:36:02;43.30;;;13.60;;
57331;SDS011;43164;50.908;18.092;2022-12-18T05:38:33;49.90;;;14.70;;
57331;SDS011;43164;50.908;18.092;2022-12-18T05:41:01;43.60;;;13.70;;
57331;SDS011;43164;50.908;18.092;2022-12-18T05:43:30;50.90;;;14.90;;
57331;SDS011;43164;50.908;18.092;2022-12-18T05:46:06;46.70;;;12.80;;
57331;SDS011;43164;50.908;18.092;2022-12-18T05:48:35;49.60;;;13.70;;
57331;SDS011;43164;50.908;18.092;2022-12-18T05:51:04;49.20;;;14.20;;
57331;SDS011;43164;50.908;18.092;2022-12-18T05:53:37;48.50;;;13.30;;
57331;SDS011;43164;50.908;18.092;2022-12-18T05:56:06;49.50;;;13.50;;
57331;SDS011;43164;50.908;18.092;2022-12-18T05:58:40;54.50;;;14.80;;
57331;SDS011;43164;50.908;18.092;2022-12-18T06:01:09;46.30;;;13.90;;
57331;SDS011;43164;50.908;18.092;2022-12-18T06:03:39;47.20;;;13.10;;
57331;SDS011;43164;50.908;18.092;2022-12-18T06:06:14;54.90;;;16.00;;
57331;SDS011;43164;50.908;18.092;2022-12-18T06:08:47;49.40;;;14.80;;
57331;SDS011;43164;50.908;18.092;2022-12-18T06:11:16;54.10;;;15.40;;
57331;SDS011;43164;50.908;18.092;2022-12-18T06:13:46;45.00;;;14.00;;
57331;SDS011;43164;50.908;18.092;2022-12-18T06:16:13;46.70;;;14.20;;
57331;SDS011;43164;50.908;18.092;2022-12-18T06:18:40;47.90;;;16.00;;
57331;SDS011;43164;50.908;18.092;2022-12-18T06:21:08;49.70;;;15.00;;
57331;SDS011;43164;50.908;18.092;2022-12-18T06:23:35;42.20;;;11.80;;
57331;SDS011;43164;50.908;18.092;2022-12-18T06:26:06;52.20;;;16.20;;
57331;SDS011;43164;50.908;18.092;2022-12-18T06:28:39;49.70;;;14.20;;
57331;SDS011;43164;50.908;18.092;2022-12-18T06:31:06;50.80;;;15.00;;
57331;SDS011;43164;50.908;18.092;2022-12-18T06:33:35;49.10;;;14.80;;
57331;SDS011;43164;50.908;18.092;2022-12-18T06:36:04;50.30;;;15.40;;
57331;SDS011;43164;50.908;18.092;2022-12-18T06:38:40;49.20;;;14.50;;
57331;SDS011;43164;50.908;18.092;2022-12-18T06:41:16;46.60;;;15.60;;
57331;SDS011;43164;50.908;18.092;2022-12-18T06:43:46;60.80;;;15.80;;
57331;SDS011;43164;50.908;18.092;2022-12-18T06:46:14;50.60;;;15.50;;
57331;SDS011;43164;50.908;18.092;2022-12-18T06:48:42;43.50;;;13.50;;
57331;SDS011;43164;50.908;18.092;2022-12-18T06:51:15;54.70;;;17.90;;
57331;SDS011;43164;50.908;18.092;2022-12-18T06:53:45;58.30;;;17.90;;
57331;SDS011;43164;50.908;18.092;2022-12-18T06:56:13;45.70;;;13.70;;
57331;SDS011;43164;50.908;18.092;2022-12-18T06:58:42;53.50;;;13.80;;
57331;SDS011;43164;50.908;18.092;2022-12-18T07:01:10;45.70;;;14.70;;
57331;SDS011;43164;50.908;18.092;2022-12-18T07:03:41;54.70;;;17.00;;
57331;SDS011;43164;50.908;18.092;2022-12-18T07:06:16;48.90;;;16.30;;
57331;SDS011;43164;50.908;18.092;2022-12-18T07:08:46;44.20;;;14.40;;
57331;SDS011;43164;50.908;18.092;2022-12-18T07:11:14;65.60;;;19.60;;
57331;SDS011;43164;50.908;18.092;2022-12-18T07:13:43;122.40;;;29.30;;
57331;SDS011;43164;50.908;18.092;2022-12-18T07:16:15;79.40;;;20.30;;
57331;SDS011;43164;50.908;18.092;2022-12-18T07:21:14;55.30;;;16.80;;
57331;SDS011;43164;50.908;18.092;2022-12-18T07:23:43;51.50;;;14.60;;
57331;SDS011;43164;50.908;18.092;2022-12-18T07:26:17;41.40;;;13.00;;
57331;SDS011;43164;50.908;18.092;2022-12-18T07:28:47;55.00;;;15.80;;
57331;SDS011;43164;50.908;18.092;2022-12-18T07:31:16;86.40;;;23.00;;
57331;SDS011;43164;50.908;18.092;2022-12-18T07:33:48;71.50;;;19.70;;
57331;SDS011;43164;50.908;18.092;2022-12-18T07:36:17;67.90;;;20.10;;
57331;SDS011;43164;50.908;18.092;2022-12-18T07:38:48;52.50;;;15.80;;
57331;SDS011;43164;50.908;18.092;2022-12-18T07:41:28;81.90;;;22.00;;
57331;SDS011;43164;50.908;18.092;2022-12-18T07:43:56;61.10;;;17.30;;
57331;SDS011;43164;50.908;18.092;2022-12-18T07:46:24;55.70;;;15.60;;
57331;SDS011;43164;50.908;18.092;2022-12-18T07:48:51;51.40;;;16.50;;
57331;SDS011;43164;50.908;18.092;2022-12-18T07:51:20;52.00;;;18.20;;
57331;SDS011;43164;50.908;18.092;2022-12-18T07:53:48;56.50;;;16.50;;
57331;SDS011;43164;50.908;18.092;2022-12-18T07:56:16;51.20;;;16.10;;
57331;SDS011;43164;50.908;18.092;2022-12-18T07:58:45;46.00;;;15.00;;
57331;SDS011;43164;50.908;18.092;2022-12-18T08:01:17;59.60;;;17.70;;
57331;SDS011;43164;50.908;18.092;2022-12-18T08:03:45;52.60;;;18.60;;
57331;SDS011;43164;50.908;18.092;2022-12-18T08:06:13;64.10;;;20.70;;
57331;SDS011;43164;50.908;18.092;2022-12-18T08:08:41;47.30;;;16.00;;
57331;SDS011;43164;50.908;18.092;2022-12-18T08:11:09;48.40;;;14.70;;
57331;SDS011;43164;50.908;18.092;2022-12-18T08:13:37;44.90;;;15.00;;
57331;SDS011;43164;50.908;18.092;2022-12-18T08:16:05;48.50;;;15.20;;
57331;SDS011;43164;50.908;18.092;2022-12-18T08:18:35;47.60;;;15.00;;
57331;SDS011;43164;50.908;18.092;2022-12-18T08:21:10;47.90;;;15.20;;
57331;SDS011;43164;50.908;18.092;2022-12-18T08:23:42;47.90;;;15.30;;
57331;SDS011;43164;50.908;18.092;2022-12-18T08:26:11;45.30;;;14.90;;
57331;SDS011;43164;50.908;18.092;2022-12-18T08:28:39;50.50;;;16.00;;
57331;SDS011;43164;50.908;18.092;2022-12-18T08:31:07;55.40;;;17.60;;
57331;SDS011;43164;50.908;18.092;2022-12-18T08:33:35;53.30;;;17.20;;
57331;SDS011;43164;50.908;18.092;2022-12-18T08:36:04;56.90;;;19.50;;
57331;SDS011;43164;50.908;18.092;2022-12-18T08:38:33;51.50;;;17.90;;
57331;SDS011;43164;50.908;18.092;2022-12-18T08:41:06;50.20;;;16.70;;
57331;SDS011;43164;50.908;18.092;2022-12-18T08:43:35;58.20;;;18.90;;
57331;SDS011;43164;50.908;18.092;2022-12-18T08:46:32;59.40;;;19.40;;
57331;SDS011;43164;50.908;18.092;2022-12-18T08:49:09;58.10;;;20.50;;
57331;SDS011;43164;50.908;18.092;2022-12-18T08:51:37;59.30;;;19.50;;
57331;SDS011;43164;50.908;18.092;2022-12-18T08:54:06;49.00;;;17.40;;
57331;SDS011;43164;50.908;18.092;2022-12-18T08:56:33;50.00;;;16.60;;
57331;SDS011;43164;50.908;18.092;2022-12-18T08:59:01;48.60;;;17.10;;
57331;SDS011;43164;50.908;18.092;2022-12-18T09:01:29;46.40;;;16.50;;
57331;SDS011;43164;50.908;18.092;2022-12-18T09:04:04;52.90;;;17.70;;
57331;SDS011;43164;50.908;18.092;2022-12-18T09:06:32;50.80;;;17.80;;
57331;SDS011;43164;50.908;18.092;2022-12-18T09:09:00;51.40;;;17.50;;
57331;SDS011;43164;50.908;18.092;2022-12-18T09:11:29;42.90;;;15.70;;
57331;SDS011;43164;50.908;18.092;2022-12-18T09:13:57;53.40;;;17.60;;
57331;SDS011;43164;50.908;18.092;2022-12-18T09:16:32;50.30;;;18.00;;
57331;SDS011;43164;50.908;18.092;2022-12-18T09:19:06;51.70;;;17.30;;
57331;SDS011;43164;50.908;18.092;2022-12-18T09:21:34;42.90;;;14.80;;
57331;SDS011;43164;50.908;18.092;2022-12-18T09:24:13;53.10;;;18.80;;
57331;SDS011;43164;50.908;18.092;2022-12-18T09:26:42;46.70;;;15.50;;
57331;SDS011;43164;50.908;18.092;2022-12-18T09:29:10;50.20;;;16.20;;
57331;SDS011;43164;50.908;18.092;2022-12-18T09:31:39;48.60;;;16.50;;
57331;SDS011;43164;50.908;18.092;2022-12-18T09:34:06;56.50;;;17.40;;
57331;SDS011;43164;50.908;18.092;2022-12-18T09:36:34;44.00;;;15.40;;
57331;SDS011;43164;50.908;18.092;2022-12-18T09:39:02;43.90;;;15.90;;
57331;SDS011;43164;50.908;18.092;2022-12-18T09:49:29;45.60;;;15.30;;
57331;SDS011;43164;50.908;18.092;2022-12-18T09:52:17;46.30;;;17.10;;
57331;SDS011;43164;50.908;18.092;2022-12-18T09:54:55;51.70;;;15.80;;
57331;SDS011;43164;50.908;18.092;2022-12-18T09:57:39;42.80;;;15.60;;
57331;SDS011;43164;50.908;18.092;2022-12-18T10:00:18;46.40;;;15.10;;
57331;SDS011;43164;50.908;18.092;2022-12-18T10:02:48;45.50;;;15.20;;
57331;SDS011;43164;50.908;18.092;2022-12-18T10:05:27;41.30;;;15.60;;
57331;SDS011;43164;50.908;18.092;2022-12-18T10:08:05;46.00;;;15.70;;
57331;SDS011;43164;50.908;18.092;2022-12-18T10:13:28;38.10;;;13.90;;
57331;SDS011;43164;50.908;18.092;2022-12-18T10:19:12;39.70;;;13.80;;
57331;SDS011;43164;50.908;18.092;2022-12-18T10:24:34;43.20;;;15.90;;
57331;SDS011;43164;50.908;18.092;2022-12-18T10:27:18;47.70;;;16.70;;
57331;SDS011;43164;50.908;18.092;2022-12-18T10:32:23;43.70;;;13.20;;
57331;SDS011;43164;50.908;18.092;2022-12-18T10:34:55;41.80;;;13.90;;
57331;SDS011;43164;50.908;18.092;2022-12-18T10:37:28;39.00;;;13.90;;
57331;SDS011;43164;50.908;18.092;2022-12-18T10:40:17;45.00;;;16.10;;
57331;SDS011;43164;50.908;18.092;2022-12-18T10:42:45;39.40;;;14.00;;
57331;SDS011;43164;50.908;18.092;2022-12-18T10:45:14;40.60;;;13.80;;
57331;SDS011;43164;50.908;18.092;2022-12-18T10:47:49;36.80;;;14.50;;
57331;SDS011;43164;50.908;18.092;2022-12-18T10:50:20;34.00;;;12.90;;
57331;SDS011;43164;50.908;18.092;2022-12-18T10:53:03;75.10;;;24.50;;
57331;SDS011;43164;50.908;18.092;2022-12-18T10:55:38;57.70;;;19.10;;
57331;SDS011;43164;50.908;18.092;2022-12-18T11:03:58;44.70;;;17.00;;
57331;SDS011;43164;50.908;18.092;2022-12-18T11:06:29;50.00;;;17.30;;
57331;SDS011;43164;50.908;18.092;2022-12-18T11:09:03;38.80;;;13.40;;
57331;SDS011;43164;50.908;18.092;2022-12-18T11:11:33;37.90;;;14.80;;
57331;SDS011;43164;50.908;18.092;2022-12-18T11:16:42;40.70;;;14.00;;
57331;SDS011;43164;50.908;18.092;2022-12-18T11:24:56;37.50;;;14.50;;
57331;SDS011;43164;50.908;18.092;2022-12-18T11:27:30;39.70;;;15.60;;
57331;SDS011;43164;50.908;18.092;2022-12-18T11:30:08;45.10;;;17.20;;
57331;SDS011;43164;50.908;18.092;2022-12-18T11:32:47;47.50;;;16.90;;
57331;SDS011;43164;50.908;18.092;2022-12-18T11:35:21;35.20;;;14.30;;
57331;SDS011;43164;50.908;18.092;2022-12-18T11:40:45;51.50;;;17.50;;
57331;SDS011;43164;50.908;18.092;2022-12-18T11:43:27;43.80;;;16.80;;
57331;SDS011;43164;50.908;18.092;2022-12-18T11:46:08;51.20;;;19.80;;
57331;SDS011;43164;50.908;18.092;2022-12-18T11:51:44;42.50;;;16.50;;
57331;SDS011;43164;50.908;18.092;2022-12-18T11:54:19;53.20;;;20.70;;
57331;SDS011;43164;50.908;18.092;2022-12-18T12:05:40;45.60;;;17.60;;
57331;SDS011;43164;50.908;18.092;2022-12-18T12:08:34;47.10;;;19.40;;
57331;SDS011;43164;50.908;18.092;2022-12-18T12:11:35;52.10;;;19.80;;
57331;SDS011;43164;50.908;18.092;2022-12-18T12:36:48;54.20;;;18.00;;
57331;SDS011;43164;50.908;18.092;2022-12-18T12:39:39;49.90;;;16.90;;
57331;SDS011;43164;50.908;18.092;2022-12-18T12:42:18;55.30;;;19.70;;
57331;SDS011;43164;50.908;18.092;2022-12-18T12:45:36;60.20;;;19.30;;
57331;SDS011;43164;50.908;18.092;2022-12-18T12:48:07;61.10;;;21.50;;
57331;SDS011;43164;50.908;18.092;2022-12-18T12:50:56;64.40;;;20.60;;
57331;SDS011;43164;50.908;18.092;2022-12-18T12:53:31;70.60;;;23.80;;
57331;SDS011;43164;50.908;18.092;2022-12-18T12:56:04;77.30;;;23.70;;
57331;SDS011;43164;50.908;18.092;2022-12-18T13:04:08;74.10;;;22.80;;
57331;SDS011;43164;50.908;18.092;2022-12-18T13:12:54;87.30;;;25.00;;
57331;SDS011;43164;50.908;18.092;2022-12-18T13:25:56;74.60;;;25.00;;
57331;SDS011;43164;50.908;18.092;2022-12-18T13:31:57;66.80;;;21.40;;
57331;SDS011;43164;50.908;18.092;2022-12-18T13:34:18;66.90;;;20.90;;
57331;SDS011;43164;50.908;18.092;2022-12-18T13:36:48;74.90;;;22.20;;
57331;SDS011;43164;50.908;18.092;2022-12-18T13:39:22;72.40;;;20.90;;
57331;SDS011;43164;50.908;18.092;2022-12-18T13:44:35;65.80;;;20.50;;
57331;SDS011;43164;50.908;18.092;2022-12-18T13:50:18;69.30;;;20.50;;
57331;SDS011;43164;50.908;18.092;2022-12-18T13:52:53;55.40;;;18.00;;
57331;SDS011;43164;50.908;18.092;2022-12-18T13:55:21;63.20;;;18.90;;
57331;SDS011;43164;50.908;18.092;2022-12-18T13:57:49;74.20;;;21.30;;
57331;SDS011;43164;50.908;18.092;2022-12-18T14:00:24;61.10;;;19.90;;
57331;SDS011;43164;50.908;18.092;2022-12-18T14:02:55;65.70;;;21.00;;
57331;SDS011;43164;50.908;18.092;2022-12-18T14:08:08;66.20;;;19.90;;
57331;SDS011;43164;50.908;18.092;2022-12-18T14:10:43;71.80;;;20.40;;
57331;SDS011;43164;50.908;18.092;2022-12-18T14:13:21;74.50;;;21.70;;
57331;SDS011;43164;50.908;18.092;2022-12-18T14:15:55;67.40;;;21.30;;
57331;SDS011;43164;50.908;18.092;2022-12-18T14:18:32;73.60;;;21.40;;
57331;SDS011;43164;50.908;18.092;2022-12-18T14:21:15;55.50;;;19.20;;
57331;SDS011;43164;50.908;18.092;2022-12-18T14:23:48;71.50;;;20.90;;
57331;SDS011;43164;50.908;18.092;2022-12-18T14:26:32;74.30;;;21.30;;
57331;SDS011;43164;50.908;18.092;2022-12-18T14:29:16;64.10;;;18.50;;
57331;SDS011;43164;50.908;18.092;2022-12-18T14:32:03;62.60;;;17.00;;
57331;SDS011;43164;50.908;18.092;2022-12-18T14:34:36;56.80;;;17.60;;
57331;SDS011;43164;50.908;18.092;2022-12-18T14:37:05;65.30;;;17.50;;
57331;SDS011;43164;50.908;18.092;2022-12-18T14:39:35;60.80;;;17.50;;
57331;SDS011;43164;50.908;18.092;2022-12-18T14:42:03;63.40;;;18.00;;
57331;SDS011;43164;50.908;18.092;2022-12-18T14:44:31;60.20;;;18.00;;
57331;SDS011;43164;50.908;18.092;2022-12-18T14:46:59;77.40;;;21.80;;
57331;SDS011;43164;50.908;18.092;2022-12-18T14:52:01;70.80;;;21.80;;
57331;SDS011;43164;50.908;18.092;2022-12-18T14:54:45;66.70;;;19.30;;
57331;SDS011;43164;50.908;18.092;2022-12-18T14:57:25;65.70;;;19.30;;
57331;SDS011;43164;50.908;18.092;2022-12-18T15:00:17;64.00;;;19.10;;
57331;SDS011;43164;50.908;18.092;2022-12-18T15:02:54;64.50;;;18.30;;
57331;SDS011;43164;50.908;18.092;2022-12-18T15:05:29;65.30;;;17.20;;
57331;SDS011;43164;50.908;18.092;2022-12-18T15:07:58;62.00;;;20.10;;
57331;SDS011;43164;50.908;18.092;2022-12-18T15:10:28;65.20;;;16.80;;
57331;SDS011;43164;50.908;18.092;2022-12-18T15:18:12;34.80;;;10.50;;
57331;SDS011;43164;50.908;18.092;2022-12-18T15:26:05;49.20;;;14.10;;
57331;SDS011;43164;50.908;18.092;2022-12-18T15:33:43;35.40;;;11.10;;
57331;SDS011;43164;50.908;18.092;2022-12-18T15:36:13;25.10;;;8.40;;
57331;SDS011;43164;50.908;18.092;2022-12-18T15:38:52;22.80;;;7.00;;
57331;SDS011;43164;50.908;18.092;2022-12-18T15:41:21;27.00;;;8.00;;
57331;SDS011;43164;50.908;18.092;2022-12-18T15:43:50;28.30;;;8.70;;
57331;SDS011;43164;50.908;18.092;2022-12-18T15:46:19;32.80;;;8.40;;
57331;SDS011;43164;50.908;18.092;2022-12-18T15:48:52;28.50;;;8.80;;
57331;SDS011;43164;50.908;18.092;2022-12-18T15:51:28;44.20;;;11.50;;
57331;SDS011;43164;50.908;18.092;2022-12-18T15:54:09;53.60;;;14.40;;
57331;SDS011;43164;50.908;18.092;2022-12-18T15:59:27;42.30;;;11.40;;
57331;SDS011;43164;50.908;18.092;2022-12-18T16:01:56;50.90;;;12.80;;
57331;SDS011;43164;50.908;18.092;2022-12-18T16:04:24;245.70;;;75.40;;
57331;SDS011;43164;50.908;18.092;2022-12-18T16:06:52;186.30;;;69.10;;
57331;SDS011;43164;50.908;18.092;2022-12-18T16:09:20;132.60;;;47.80;;
57331;SDS011;43164;50.908;18.092;2022-12-18T16:11:48;114.00;;;40.40;;
57331;SDS011;43164;50.908;18.092;2022-12-18T16:14:21;149.70;;;49.00;;
57331;SDS011;43164;50.908;18.092;2022-12-18T16:17:00;93.20;;;34.30;;
57331;SDS011;43164;50.908;18.092;2022-12-18T16:19:30;82.80;;;29.60;;
57331;SDS011;43164;50.908;18.092;2022-12-18T16:21:57;73.70;;;26.70;;
57331;SDS011;43164;50.908;18.092;2022-12-18T16:24:27;44.80;;;15.00;;
57331;SDS011;43164;50.908;18.092;2022-12-18T16:26:59;45.00;;;13.70;;
57331;SDS011;43164;50.908;18.092;2022-12-18T16:29:28;35.60;;;11.60;;
57331;SDS011;43164;50.908;18.092;2022-12-18T16:31:57;52.70;;;13.80;;
57331;SDS011;43164;50.908;18.092;2022-12-18T16:34:32;53.70;;;15.00;;
57331;SDS011;43164;50.908;18.092;2022-12-18T16:37:02;60.50;;;17.30;;
57331;SDS011;43164;50.908;18.092;2022-12-18T16:39:32;67.70;;;17.10;;
57331;SDS011;43164;50.908;18.092;2022-12-18T16:42:05;57.20;;;16.30;;
57331;SDS011;43164;50.908;18.092;2022-12-18T16:44:43;67.30;;;18.10;;
57331;SDS011;43164;50.908;18.092;2022-12-18T16:47:12;53.50;;;16.80;;
57331;SDS011;43164;50.908;18.092;2022-12-18T16:49:41;63.80;;;18.50;;
57331;SDS011;43164;50.908;18.092;2022-12-18T16:52:11;58.30;;;18.00;;
57331;SDS011;43164;50.908;18.092;2022-12-18T16:54:40;60.80;;;19.00;;
57331;SDS011;43164;50.908;18.092;2022-12-18T16:57:08;65.40;;;19.20;;
57331;SDS011;43164;50.908;18.092;2022-12-18T16:59:37;76.90;;;21.40;;
57331;SDS011;43164;50.908;18.092;2022-12-18T17:02:05;79.50;;;22.90;;
57331;SDS011;43164;50.908;18.092;2022-12-18T17:04:38;68.20;;;21.70;;
57331;SDS011;43164;50.908;18.092;2022-12-18T17:07:07;66.80;;;19.80;;
57331;SDS011;43164;50.908;18.092;2022-12-18T17:09:35;75.60;;;19.70;;
57331;SDS011;43164;50.908;18.092;2022-12-18T17:12:03;66.90;;;18.80;;